lundi 24 février 2014

ALERTE SPOTTING 24/02/14

320 F-HDMF Air Corsica (stickers cyclistes)
   XK4501/XK4500   08h30/09h25
  XK4505/XK4504   19h55/ 21h00

320 EC-JZQ Vueling (stickers Thanks)
   VY8012/VY8013   09h00/09h45

 744 EC-KQC Pullmantur Air
   dpt  PLM710P  10h50

CCX    10h50/12h00

LRJ    11h10/17h00

73H TC-AZP Pegasus (sticker 'Asia')
  PC401/PC402  13h20/14h10

73H LN-NGE Norwegian
  DY5836/DY5837  19h05/19h40

Manque les prévisions/immats UX / BE / AZ / TP / BA / AH
*** Heures en Local Time **
Prévisions soumises à modifications de dernières minute. Voir le log du mois pour la version 'définitive' de la journée:   http://www.airkalo.com/ORLYAVIATION/Logdumois.html

le TAF de la journée


METAR: LFPO 240330Z 13003KT CAVOK 05/03 Q1011 NOSIG=
TAF LONG: LFPO 232300Z 2400/2506 16005KT CAVOK BECMG 2409/2412 20010KT
TEMPO 2412/2415 FEW03/0 BECMG 2421/2424 16010KT=